KLUK/LUK METAR and TAF weather

Enter ICAO airport designator
Station Type Date Time Source
KLUK METAR 2020/09/22 05:32 UTC NOAA

KLUK 220532Z AUTO 00000KT 1 3/4SM R21L/3000VP6000FT BR CLR 08/08 A3031 RMK AO2 VIS 1/2V5 T00830078


Station Type Date Time Source
KLUK Decoded METAR 2020/09/22 05:32 UTC NOAA

CINCINNATI MUN LUNKEN FLD, OH, United States (KLUK) 39-06N 84-25W 155M
Sep 22, 2020 - 01:32 AM EDT / 2020.09.22 0532 UTC
Wind: Calm:0
Visibility: 1 3/4 mile(s):0
Sky conditions: clear
Weather: mist
Temperature: 46.9 F (8.3 C)
Dew Point: 46.0 F (7.8 C)
Relative Humidity: 96%
Pressure (altimeter): 30.31 in. Hg (1026 hPa)
ob: KLUK 220532Z AUTO 00000KT 1 3/4SM R21L/3000VP6000FT BR CLR 08/08 A3031 RMK AO2 VIS 1/2V5 T00830078
cycle: 5

Station Type Date Time Source
KLUK TAF 2020/09/21 18:33 UTC NOAA

TAF KLUK 211730Z 2118/2218 13005KT P6SM SKC
FM220000 00000KT P6SM SKC
FM220600 00000KT 4SM BR FEW250
FM220800 00000KT 2SM BR SCT003
FM221300 00000KT P6SM SCT050

Example: see airport list